Stavanger Breeze — LAOQ7 — position and weather

sailwx.info

Track history (hours):
 
Tides and Currents Weather Stations Pressure Air Temp Water Temp Dewpoint Dewpoint Depression Visibility Wind Speed Wind Dir Waves Ship Positions

Stavanger Breeze

Last reported at 2018-Jun-25 16:49 UTC. Time now 2018-Jun-25 19:49 UTC.
Position N 49°53' W 003°21'.

Length 182 m; draft 11.5 m.

Type: Tanker. MMSI: 257772000.

Date/timePositionNaut miles runAvg speedWind from/ knotsBaromVisibWave heightAir tempDewpointWater temp
2018-Jun-25 16:49N 49°53' W 003°21'610.5
2018-Jun-25 16:13N 49°56' W 003°12'1911.3
2018-Jun-25 14:33N 50°01' W 002°44'10212.3
2018-Jun-25 06:14N 50°28' W 000°10'2 9.9
2018-Jun-25 06:01N 50°29' W 000°06'610.0
2018-Jun-25 05:23N 50°30' E 000°03'1711.1
2018-Jun-25 03:51N 50°35' E 000°29'412.2
2018-Jun-25 03:30N 50°38' E 000°34'612.4
2018-Jun-25 03:01N 50°41' E 000°42'612.5
2018-Jun-25 02:30N 50°45' E 000°50'612.3
2018-Jun-25 01:59N 50°49' E 000°58'712.0
2018-Jun-25 01:22N 50°54' E 001°07'511.6
2018-Jun-25 00:58N 50°57' E 001°12'611.0
2018-Jun-25 00:26N 51°01' E 001°19'510.2
2018-Jun-24 23:57N 51°04' E 001°25'3 7.2
2018-Jun-24 23:29N 51°07' E 001°27'2 3.2
2018-Jun-24 23:01N 51°08' E 001°30'4 8.8
2018-Jun-24 22:30N 51°09' E 001°36'9 9.1
2018-Jun-24 21:30N 51°15' E 001°47'510.3
2018-Jun-24 21:00N 51°20' E 001°50'511.0
2018-Jun-24 20:31N 51°25' E 001°55'611.7
2018-Jun-24 20:00N 51°29' E 002°01'612.1
2018-Jun-24 19:30N 51°33' E 002°08'712.6
2018-Jun-24 18:59N 51°38' E 002°15'612.7
2018-Jun-24 18:30N 51°43' E 002°21'713.0
2018-Jun-24 17:59N 51°49' E 002°27'613.0
2018-Jun-24 17:30N 51°54' E 002°32'3711.8
2018-Jun-24 14:22N 52°28' E 002°56'510.6
2018-Jun-24 13:56N 52°32' E 002°59'410.3
2018-Jun-24 13:30N 52°36' E 003°02'410 9.4
2018-Jun-22 18:03N 57°31' E 011°21'1 9.9
2018-Jun-22 17:58N 57°30' E 011°22'4 9.5
2018-Jun-22 17:30N 57°26' E 011°27'148 9.8
2018-Jun-22 02:26N 54°60' E 010°59'4 9.7
2018-Jun-22 02:00N 54°57' E 010°54'5 9.7
2018-Jun-22 01:30N 54°52' E 010°50'4 9.1
2018-Jun-22 01:01N 54°48' E 010°50'5 9.3
2018-Jun-22 00:30N 54°43' E 010°47'4 8.5
2018-Jun-22 00:00N 54°39' E 010°50'5 9.6
2018-Jun-21 23:29N 54°37' E 010°58'4 8.9
2018-Jun-21 23:00N 54°36' E 011°05'5 9.2
2018-Jun-21 22:30N 54°36' E 011°13'5 9.1
2018-Jun-21 22:01N 54°34' E 011°19'5 9.8
2018-Jun-21 21:29N 54°32' E 011°27'5 9.6
2018-Jun-21 20:58N 54°29' E 011°35'4 9.3
2018-Jun-21 20:30N 54°28' E 011°42'9010.4
2018-Jun-21 11:48N 55°05' E 014°05'812.5
2018-Jun-21 11:10N 55°10' E 014°14'1612.5
2018-Jun-21 09:55N 55°23' E 014°29'1511.8
2018-Jun-21 08:41N 55°31' E 014°51'  
2018-Jun-15 18:57N 55°46' E 020°52'  
Track history (hours):
 
Tides and Currents Weather Stations Pressure Air Temp Water Temp Dewpoint Dewpoint Depression Visibility Wind Speed Wind Dir Waves Ship Positions

Stavanger Breeze

Last reported at 2018-Jun-25 16:49 UTC. Time now 2018-Jun-25 19:49 UTC.
Position N 49°53' W 003°21'.

Length 182 m; draft 11.5 m.

Type: Tanker. MMSI: 257772000.

Date/timePositionNaut miles runAvg speedWind from/ knotsBaromVisibWave heightAir tempDewpointWater temp
2018-Jun-25 16:49N 49°53' W 003°21'610.5
2018-Jun-25 16:13N 49°56' W 003°12'1911.3
2018-Jun-25 14:33N 50°01' W 002°44'10212.3
2018-Jun-25 06:14N 50°28' W 000°10'2 9.9
2018-Jun-25 06:01N 50°29' W 000°06'610.0
2018-Jun-25 05:23N 50°30' E 000°03'1711.1
2018-Jun-25 03:51N 50°35' E 000°29'412.2
2018-Jun-25 03:30N 50°38' E 000°34'612.4
2018-Jun-25 03:01N 50°41' E 000°42'612.5
2018-Jun-25 02:30N 50°45' E 000°50'612.3
2018-Jun-25 01:59N 50°49' E 000°58'712.0
2018-Jun-25 01:22N 50°54' E 001°07'511.6
2018-Jun-25 00:58N 50°57' E 001°12'611.0
2018-Jun-25 00:26N 51°01' E 001°19'510.2
2018-Jun-24 23:57N 51°04' E 001°25'3 7.2
2018-Jun-24 23:29N 51°07' E 001°27'2 3.2
2018-Jun-24 23:01N 51°08' E 001°30'4 8.8
2018-Jun-24 22:30N 51°09' E 001°36'9 9.1
2018-Jun-24 21:30N 51°15' E 001°47'510.3
2018-Jun-24 21:00N 51°20' E 001°50'511.0
2018-Jun-24 20:31N 51°25' E 001°55'611.7
2018-Jun-24 20:00N 51°29' E 002°01'612.1
2018-Jun-24 19:30N 51°33' E 002°08'712.6
2018-Jun-24 18:59N 51°38' E 002°15'612.7
2018-Jun-24 18:30N 51°43' E 002°21'713.0
2018-Jun-24 17:59N 51°49' E 002°27'613.0
2018-Jun-24 17:30N 51°54' E 002°32'3711.8
2018-Jun-24 14:22N 52°28' E 002°56'510.6
2018-Jun-24 13:56N 52°32' E 002°59'410.3
2018-Jun-24 13:30N 52°36' E 003°02'410 9.4
2018-Jun-22 18:03N 57°31' E 011°21'1 9.9
2018-Jun-22 17:58N 57°30' E 011°22'4 9.5
2018-Jun-22 17:30N 57°26' E 011°27'148 9.8
2018-Jun-22 02:26N 54°60' E 010°59'4 9.7
2018-Jun-22 02:00N 54°57' E 010°54'5 9.7
2018-Jun-22 01:30N 54°52' E 010°50'4 9.1
2018-Jun-22 01:01N 54°48' E 010°50'5 9.3
2018-Jun-22 00:30N 54°43' E 010°47'4 8.5
2018-Jun-22 00:00N 54°39' E 010°50'5 9.6
2018-Jun-21 23:29N 54°37' E 010°58'4 8.9
2018-Jun-21 23:00N 54°36' E 011°05'5 9.2
2018-Jun-21 22:30N 54°36' E 011°13'5 9.1
2018-Jun-21 22:01N 54°34' E 011°19'5 9.8
2018-Jun-21 21:29N 54°32' E 011°27'5 9.6
2018-Jun-21 20:58N 54°29' E 011°35'4 9.3
2018-Jun-21 20:30N 54°28' E 011°42'9010.4
2018-Jun-21 11:48N 55°05' E 014°05'812.5
2018-Jun-21 11:10N 55°10' E 014°14'1612.5
2018-Jun-21 09:55N 55°23' E 014°29'1511.8
2018-Jun-21 08:41N 55°31' E 014°51'  
2018-Jun-15 18:57N 55°46' E 020°52'  

Dump ship's entire track history